Aviation Digital Data Service (ADDS)

Output produced by METARs form (0158 UTC 31 May 2016)
found at http://www.aviationweather.gov/adds/metars/
 
KDUJ 310153Z AUTO 00000KT 10SM CLR 18/12 A3002 RMK AO2 SLP156 T01830117
KDUJ 310053Z AUTO 34003KT 10SM CLR 22/11 A3001 RMK AO2 SLP149 T02170111
KDUJ 302353Z AUTO 31004KT 10SM CLR 23/12 A3000 RMK AO2 SLP147 T02330117 10272 20233 53005
KDUJ 302253Z AUTO 33006KT 10SM CLR 25/11 A2998 RMK AO2 SLP143 T02500111
KDUJ 302153Z AUTO VRB06KT 10SM FEW075 24/12 A2998 RMK AO2 SLP142 T02440122
KDUJ 302053Z AUTO 29009KT 10SM FEW065 SCT085 26/12 A2998 RMK AO2 SLP142 T02610122 58010
KDUJ 301953Z AUTO 27008KT 10SM CLR 27/13 A2999 RMK AO2 SLP145 T02670133
KDUJ 301853Z AUTO 29008KT 10SM SCT048 SCT060 BKN070 26/14 A3001 RMK AO2 SLP151 T02560144
KDUJ 301753Z AUTO 31009KT 10SM FEW042 SCT055 24/16 A3002 RMK AO2 SLP154 T02440156 10256 20172 56004
KDUJ 301653Z AUTO 29007KT 10SM BKN037 BKN045 BKN055 24/16 A3002 RMK AO2 SLP154 T02440161
KDUJ 301553Z AUTO VRB03KT 10SM SCT027 23/16 A3003 RMK AO2 SLP157 T02330161
KDUJ 301453Z AUTO 23005KT 10SM CLR 22/17 A3003 RMK AO2 SLP158 T02220167 58002
KDUJ 301353Z AUTO 25006KT 9SM CLR 21/17 A3004 RMK AO2 SLP162 T02110167
KDUJ 301253Z AUTO 25007KT 8SM CLR 19/17 A3004 RMK AO2 SLP162 T01940167
KDUJ 301153Z AUTO 22004KT 6SM BR SCT023 17/16 A3003 RMK AO2 SLP163 T01720156 10172 20128 58000
KDUJ 301149Z AUTO 22005KT 5SM BR SCT023 17/16 A3004 RMK AO2
KDUJ 301134Z AUTO 23003KT 5SM BR BKN022 17/15 A3004 RMK AO2 T01670150
KDUJ 301102Z AUTO 00000KT 4SM BR FEW060 15/13 A3004 RMK AO2 T01500133
KDUJ 301053Z AUTO 00000KT 2 1/2SM BR FEW060 14/13 A3004 RMK AO2 SLP165 T01390133
KDUJ 301049Z AUTO 00000KT 2 1/2SM BR FEW060 14/13 A3004 RMK AO2
KDUJ 301032Z AUTO 00000KT 1SM BR FEW060 13/12 A3004 RMK AO2 T01330122
KDUJ 301004Z AUTO 00000KT 2SM BR CLR 13/13 A3004 RMK AO2 T01330128
KDUJ 300953Z AUTO 20003KT 3SM BR CLR 14/13 A3004 RMK AO2 SLP165 T01390128
KDUJ 300853Z AUTO 00000KT 6SM BR CLR 14/13 A3002 RMK AO2 SLP158 T01440133 56007
KDUJ 300753Z AUTO 17004KT 7SM CLR 14/13 A3002 RMK AO2 SLP157 T01440133
KDUJ 300712Z AUTO 14005KT 4SM BR CLR 14/13 A3003 RMK AO2 T01440128
KDUJ 300700Z AUTO 00000KT 1 1/4SM BR CLR 14/13 A3004 RMK AO2 VIS 1/4V5 T01390128
KDUJ 300653Z AUTO 00000KT 7SM CLR 14/13 A3004 RMK AO2 SLP161 T01440133
KDUJ 300553Z AUTO 00000KT 10SM FEW065 15/14 A3005 RMK AO2 SLP163 T01500139 10189 20144 58007
KDUJ 300453Z AUTO 00000KT 8SM CLR 16/14 A3006 RMK AO2 SLP167 T01560139 402670150
KDUJ 300353Z AUTO 00000KT 10SM BKN120 16/14 A3007 RMK AO2 SLP171 T01560139
KDUJ 300253Z AUTO 00000KT 10SM CLR 16/14 A3007 RMK AO2 SLP171 T01610144 56004
KDUJ 300153Z AUTO 17003KT 10SM CLR 17/14 A3008 RMK AO2 SLP175 T01670139
KDUJ 300053Z AUTO 11004KT 10SM CLR 17/14 A3006 RMK AO2 SLP169 T01670144
KDUJ 292353Z AUTO 24003KT 10SM OVC110 18/13 A3008 RMK AO2 SLP176 60000 T01830133 10261 20183 58005
KDUJ 292253Z AUTO 26003KT 10SM FEW070 BKN085 19/14 A3011 RMK AO2 SLP185 T01890144
KDUJ 292153Z AUTO 21006KT 10SM OVC100 19/13 A3012 RMK AO2 LTG DSNT NW RAB04E20 SLP191 P0000 T01890128
KDUJ 292122Z AUTO 18009G22KT 9SM SCT025 BKN050 OVC120 19/14 A3011 RMK AO2 LTG DSNT NW RAB04E20 P0000 T01890144
KDUJ 292112Z AUTO 15007G25KT 120V190 5SM -RA BKN026 BKN075 OVC095 21/16 A3011 RMK AO2 LTG DSNT NW RAB04 P0000 T02060156
KDUJ 292103Z AUTO 19005KT 7SM VCTS FEW026 SCT075 OVC095 23/19 A3011 RMK AO2 LTG DSNT W AND NW T02330189
KDUJ 292053Z AUTO 22006KT 8SM SCT075 OVC100 23/19 A3010 RMK AO2 LTG DSNT SE AND W AND NW SLP180 60000 T02330189 56010
KDUJ 291953Z AUTO 26006KT 8SM OVC110 24/19 A3010 RMK AO2 LTG DSNT E AND SE RAB18E22 SLP181 P0000 T02390194
KDUJ 291853Z AUTO 25004KT 9SM FEW048 SCT085 BKN120 25/19 A3011 RMK AO2 SLP183 T02500189
KDUJ 291753Z AUTO 23007KT 10SM CLR 26/18 A3013 RMK AO2 SLP188 T02610183 10267 20206 56007
KDUJ 291653Z AUTO 23005KT 10SM FEW032 26/19 A3013 RMK AO2 SLP190 T02560189
KDUJ 291553Z AUTO VRB03KT 10SM SCT028 BKN035 BKN080 26/18 A3014 RMK AO2 SLP191 T02610183
KDUJ 291453Z AUTO 00000KT 10SM BKN070 25/19 A3015 RMK AO2 SLP194 T02500189 58000